sensor_id;sensor_type;location;lat;lon;timestamp;noise_LAeq;noise_LA_min;noise_LA_max;noise_LA01;noise_LA95
70740;Laerm;58330;51.888;11.052;2023-02-18T00:02:11;36.02;33.50;41.47;;
70740;Laerm;58330;51.888;11.052;2023-02-18T00:04:37;36.18;33.33;41.66;;
70740;Laerm;58330;51.888;11.052;2023-02-18T00:07:04;35.74;33.60;40.86;;
70740;Laerm;58330;51.888;11.052;2023-02-18T00:09:30;35.07;33.44;40.03;;
70740;Laerm;58330;51.888;11.052;2023-02-18T00:11:56;35.34;33.45;40.75;;
70740;Laerm;58330;51.888;11.052;2023-02-18T00:14:22;35.25;33.43;40.67;;
70740;Laerm;58330;51.888;11.052;2023-02-18T00:16:50;36.35;33.56;42.09;;
70740;Laerm;58330;51.888;11.052;2023-02-18T00:19:17;36.59;33.68;42.71;;
70740;Laerm;58330;51.888;11.052;2023-02-18T00:21:43;36.58;33.54;44.11;;
70740;Laerm;58330;51.888;11.052;2023-02-18T00:24:10;36.50;33.58;42.33;;
70740;Laerm;58330;51.888;11.052;2023-02-18T00:26:39;36.99;33.51;42.40;;
70740;Laerm;58330;51.888;11.052;2023-02-18T00:29:05;36.81;33.88;47.10;;
70740;Laerm;58330;51.888;11.052;2023-02-18T00:31:33;36.83;34.00;42.25;;
70740;Laerm;58330;51.888;11.052;2023-02-18T00:34:02;35.86;33.50;41.71;;
70740;Laerm;58330;51.888;11.052;2023-02-18T00:36:29;36.48;33.76;41.64;;
70740;Laerm;58330;51.888;11.052;2023-02-18T00:38:57;34.85;33.59;37.99;;
70740;Laerm;58330;51.888;11.052;2023-02-18T00:41:24;34.94;33.43;38.26;;
70740;Laerm;58330;51.888;11.052;2023-02-18T00:43:51;35.06;33.23;43.54;;
70740;Laerm;58330;51.888;11.052;2023-02-18T00:46:18;34.88;33.33;37.73;;
70740;Laerm;58330;51.888;11.052;2023-02-18T00:48:44;35.37;33.53;40.56;;
70740;Laerm;58330;51.888;11.052;2023-02-18T00:51:12;35.31;33.33;39.47;;
70740;Laerm;58330;51.888;11.052;2023-02-18T00:53:39;35.69;33.71;43.68;;
70740;Laerm;58330;51.888;11.052;2023-02-18T00:56:06;37.20;33.97;43.14;;
70740;Laerm;58330;51.888;11.052;2023-02-18T00:58:32;37.85;33.63;56.54;;
70740;Laerm;58330;51.888;11.052;2023-02-18T01:00:58;36.82;33.98;41.99;;
70740;Laerm;58330;51.888;11.052;2023-02-18T01:03:25;36.95;33.65;42.03;;
70740;Laerm;58330;51.888;11.052;2023-02-18T01:05:51;36.49;33.66;41.93;;
70740;Laerm;58330;51.888;11.052;2023-02-18T01:08:19;36.68;33.85;56.71;;
70740;Laerm;58330;51.888;11.052;2023-02-18T01:10:46;35.77;33.51;42.76;;
70740;Laerm;58330;51.888;11.052;2023-02-18T01:13:13;36.51;33.60;42.59;;
70740;Laerm;58330;51.888;11.052;2023-02-18T01:15:40;35.95;33.71;41.80;;
70740;Laerm;58330;51.888;11.052;2023-02-18T01:18:07;42.16;34.10;68.05;;
70740;Laerm;58330;51.888;11.052;2023-02-18T01:20:34;36.94;34.24;41.69;;
70740;Laerm;58330;51.888;11.052;2023-02-18T01:23:01;36.58;33.79;41.79;;
70740;Laerm;58330;51.888;11.052;2023-02-18T01:25:29;36.56;33.92;41.95;;
70740;Laerm;58330;51.888;11.052;2023-02-18T01:27:55;46.49;33.60;77.01;;
70740;Laerm;58330;51.888;11.052;2023-02-18T01:30:22;34.97;33.16;38.50;;
70740;Laerm;58330;51.888;11.052;2023-02-18T01:32:48;35.01;33.36;38.02;;
70740;Laerm;58330;51.888;11.052;2023-02-18T01:35:15;35.18;33.68;38.96;;
70740;Laerm;58330;51.888;11.052;2023-02-18T01:37:43;35.40;33.49;40.22;;
70740;Laerm;58330;51.888;11.052;2023-02-18T01:40:10;35.33;33.60;39.74;;
70740;Laerm;58330;51.888;11.052;2023-02-18T01:42:38;35.19;33.46;38.08;;
70740;Laerm;58330;51.888;11.052;2023-02-18T01:48:06;38.72;34.34;46.81;;
70740;Laerm;58330;51.888;11.052;2023-02-18T01:50:37;35.99;33.54;41.64;;
70740;Laerm;58330;51.888;11.052;2023-02-18T01:53:04;35.91;33.61;53.50;;
70740;Laerm;58330;51.888;11.052;2023-02-18T01:55:31;36.14;33.30;40.59;;
70740;Laerm;58330;51.888;11.052;2023-02-18T01:57:59;36.40;34.07;41.17;;
70740;Laerm;58330;51.888;11.052;2023-02-18T02:00:26;35.29;33.34;38.91;;
70740;Laerm;58330;51.888;11.052;2023-02-18T02:02:52;36.14;33.66;42.79;;
70740;Laerm;58330;51.888;11.052;2023-02-18T02:05:19;36.23;33.76;44.22;;
70740;Laerm;58330;51.888;11.052;2023-02-18T02:07:46;35.61;33.60;41.84;;
70740;Laerm;58330;51.888;11.052;2023-02-18T02:10:13;35.83;33.56;39.02;;
70740;Laerm;58330;51.888;11.052;2023-02-18T02:12:43;35.81;33.51;39.00;;
70740;Laerm;58330;51.888;11.052;2023-02-18T02:15:29;36.30;34.16;40.23;;
70740;Laerm;58330;51.888;11.052;2023-02-18T02:18:04;35.35;33.48;39.57;;
70740;Laerm;58330;51.888;11.052;2023-02-18T02:20:41;34.98;33.44;39.48;;
70740;Laerm;58330;51.888;11.052;2023-02-18T02:26:03;35.17;33.53;40.67;;
70740;Laerm;58330;51.888;11.052;2023-02-18T02:28:42;35.07;33.50;42.71;;
70740;Laerm;58330;51.888;11.052;2023-02-18T02:36:54;35.30;33.64;38.88;;
70740;Laerm;58330;51.888;11.052;2023-02-18T02:39:27;35.08;33.70;38.44;;
70740;Laerm;58330;51.888;11.052;2023-02-18T02:41:58;35.04;33.53;37.72;;
70740;Laerm;58330;51.888;11.052;2023-02-18T02:44:29;35.59;33.73;41.70;;
70740;Laerm;58330;51.888;11.052;2023-02-18T02:47:00;35.54;33.55;41.33;;
70740;Laerm;58330;51.888;11.052;2023-02-18T02:49:31;35.13;33.73;39.08;;
70740;Laerm;58330;51.888;11.052;2023-02-18T02:52:01;35.13;33.75;38.35;;
70740;Laerm;58330;51.888;11.052;2023-02-18T02:54:28;35.27;33.62;38.46;;
70740;Laerm;58330;51.888;11.052;2023-02-18T02:57:04;36.01;33.74;41.65;;
70740;Laerm;58330;51.888;11.052;2023-02-18T02:59:31;36.87;33.90;42.34;;
70740;Laerm;58330;51.888;11.052;2023-02-18T03:02:01;36.55;33.98;42.14;;
70740;Laerm;58330;51.888;11.052;2023-02-18T03:04:40;35.83;33.71;41.48;;
70740;Laerm;58330;51.888;11.052;2023-02-18T03:10:02;38.05;34.08;53.76;;
70740;Laerm;58330;51.888;11.052;2023-02-18T03:12:33;36.22;34.20;42.45;;
70740;Laerm;58330;51.888;11.052;2023-02-18T03:15:04;35.86;34.31;42.29;;
70740;Laerm;58330;51.888;11.052;2023-02-18T03:17:34;36.06;34.24;41.59;;
70740;Laerm;58330;51.888;11.052;2023-02-18T03:20:04;36.09;34.47;43.98;;
70740;Laerm;58330;51.888;11.052;2023-02-18T03:22:35;36.50;34.41;43.63;;
70740;Laerm;58330;51.888;11.052;2023-02-18T03:25:04;35.84;34.09;41.26;;
70740;Laerm;58330;51.888;11.052;2023-02-18T03:27:31;36.17;33.84;43.91;;
70740;Laerm;58330;51.888;11.052;2023-02-18T03:29:59;36.22;34.34;41.20;;
70740;Laerm;58330;51.888;11.052;2023-02-18T03:32:26;36.38;34.36;40.34;;
70740;Laerm;58330;51.888;11.052;2023-02-18T03:34:54;36.54;34.30;39.32;;
70740;Laerm;58330;51.888;11.052;2023-02-18T03:37:23;36.30;34.32;40.23;;
70740;Laerm;58330;51.888;11.052;2023-02-18T03:39:51;36.48;34.24;41.39;;
70740;Laerm;58330;51.888;11.052;2023-02-18T03:42:20;36.58;34.57;41.24;;
70740;Laerm;58330;51.888;11.052;2023-02-18T03:44:49;36.47;34.39;40.98;;
70740;Laerm;58330;51.888;11.052;2023-02-18T03:47:16;36.39;34.62;40.36;;
70740;Laerm;58330;51.888;11.052;2023-02-18T03:49:42;36.39;34.51;44.61;;
70740;Laerm;58330;51.888;11.052;2023-02-18T03:52:08;36.79;34.71;41.38;;
70740;Laerm;58330;51.888;11.052;2023-02-18T03:54:35;36.66;34.71;43.19;;
70740;Laerm;58330;51.888;11.052;2023-02-18T03:57:01;36.44;34.60;39.96;;
70740;Laerm;58330;51.888;11.052;2023-02-18T03:59:29;36.71;34.71;42.14;;
70740;Laerm;58330;51.888;11.052;2023-02-18T04:01:55;36.58;34.66;41.82;;
70740;Laerm;58330;51.888;11.052;2023-02-18T04:04:22;36.79;34.69;40.74;;
70740;Laerm;58330;51.888;11.052;2023-02-18T04:06:48;36.67;34.72;42.56;;
70740;Laerm;58330;51.888;11.052;2023-02-18T04:09:14;36.77;34.86;41.44;;
70740;Laerm;58330;51.888;11.052;2023-02-18T04:11:40;37.06;34.74;44.46;;
70740;Laerm;58330;51.888;11.052;2023-02-18T04:14:07;37.46;34.84;42.91;;
70740;Laerm;58330;51.888;11.052;2023-02-18T04:16:34;37.81;34.88;43.14;;
70740;Laerm;58330;51.888;11.052;2023-02-18T04:19:01;36.99;34.63;42.87;;
70740;Laerm;58330;51.888;11.052;2023-02-18T04:21:27;39.00;34.62;44.27;;
70740;Laerm;58330;51.888;11.052;2023-02-18T04:23:53;37.44;34.26;43.70;;
70740;Laerm;58330;51.888;11.052;2023-02-18T04:26:20;37.80;34.55;42.36;;
70740;Laerm;58330;51.888;11.052;2023-02-18T04:28:46;39.31;34.95;45.35;;
70740;Laerm;58330;51.888;11.052;2023-02-18T04:31:13;39.90;35.14;45.31;;
70740;Laerm;58330;51.888;11.052;2023-02-18T04:33:40;38.57;35.07;46.46;;
70740;Laerm;58330;51.888;11.052;2023-02-18T04:36:07;37.02;34.66;41.84;;
70740;Laerm;58330;51.888;11.052;2023-02-18T04:38:33;37.12;34.44;40.63;;
70740;Laerm;58330;51.888;11.052;2023-02-18T04:41:00;37.02;34.81;40.46;;
70740;Laerm;58330;51.888;11.052;2023-02-18T04:43:26;37.05;34.91;41.17;;
70740;Laerm;58330;51.888;11.052;2023-02-18T04:45:52;36.93;34.69;42.58;;
70740;Laerm;58330;51.888;11.052;2023-02-18T04:48:19;37.53;34.73;42.99;;
70740;Laerm;58330;51.888;11.052;2023-02-18T04:50:46;37.51;34.74;41.78;;
70740;Laerm;58330;51.888;11.052;2023-02-18T04:53:13;36.87;34.58;40.73;;
70740;Laerm;58330;51.888;11.052;2023-02-18T04:55:39;36.55;34.47;39.94;;
70740;Laerm;58330;51.888;11.052;2023-02-18T04:58:05;36.27;34.39;38.75;;
70740;Laerm;58330;51.888;11.052;2023-02-18T05:00:34;36.29;34.40;39.47;;
70740;Laerm;58330;51.888;11.052;2023-02-18T05:03:00;36.19;34.49;39.92;;
70740;Laerm;58330;51.888;11.052;2023-02-18T05:05:26;37.48;34.76;44.87;;
70740;Laerm;58330;51.888;11.052;2023-02-18T05:07:54;36.47;34.64;41.78;;
70740;Laerm;58330;51.888;11.052;2023-02-18T05:10:20;36.79;34.67;41.13;;
70740;Laerm;58330;51.888;11.052;2023-02-18T05:12:46;37.27;34.97;48.87;;
70740;Laerm;58330;51.888;11.052;2023-02-18T05:15:12;38.02;34.95;47.26;;
70740;Laerm;58330;51.888;11.052;2023-02-18T05:17:39;37.20;35.08;40.84;;
70740;Laerm;58330;51.888;11.052;2023-02-18T05:20:06;37.15;35.03;41.18;;
70740;Laerm;58330;51.888;11.052;2023-02-18T05:22:32;37.48;35.50;41.88;;
70740;Laerm;58330;51.888;11.052;2023-02-18T05:25:00;37.72;36.11;40.39;;
70740;Laerm;58330;51.888;11.052;2023-02-18T05:27:26;38.14;36.14;40.49;;
70740;Laerm;58330;51.888;11.052;2023-02-18T05:29:53;38.90;36.06;45.73;;
70740;Laerm;58330;51.888;11.052;2023-02-18T05:32:19;43.52;36.71;48.94;;
70740;Laerm;58330;51.888;11.052;2023-02-18T05:34:45;44.60;38.08;49.26;;
70740;Laerm;58330;51.888;11.052;2023-02-18T05:37:12;46.48;41.69;51.15;;
70740;Laerm;58330;51.888;11.052;2023-02-18T05:39:38;48.84;45.13;52.25;;
70740;Laerm;58330;51.888;11.052;2023-02-18T05:42:06;48.28;39.60;53.36;;
70740;Laerm;58330;51.888;11.052;2023-02-18T05:44:32;43.98;39.28;48.94;;
70740;Laerm;58330;51.888;11.052;2023-02-18T05:46:59;45.61;38.79;50.92;;
70740;Laerm;58330;51.888;11.052;2023-02-18T05:49:25;47.04;41.72;54.56;;
70740;Laerm;58330;51.888;11.052;2023-02-18T05:51:51;47.52;40.64;54.22;;
70740;Laerm;58330;51.888;11.052;2023-02-18T05:54:17;47.21;38.69;57.57;;
70740;Laerm;58330;51.888;11.052;2023-02-18T05:56:44;44.69;38.61;59.39;;
70740;Laerm;58330;51.888;11.052;2023-02-18T05:59:12;43.73;38.42;54.12;;
70740;Laerm;58330;51.888;11.052;2023-02-18T06:01:38;52.47;39.05;60.18;;
70740;Laerm;58330;51.888;11.052;2023-02-18T06:04:05;55.40;38.79;60.39;;
70740;Laerm;58330;51.888;11.052;2023-02-18T06:06:31;55.96;39.29;60.11;;
70740;Laerm;58330;51.888;11.052;2023-02-18T06:08:57;53.27;40.83;59.83;;
70740;Laerm;58330;51.888;11.052;2023-02-18T06:11:24;47.23;42.22;54.88;;
70740;Laerm;58330;51.888;11.052;2023-02-18T06:13:50;49.64;42.92;56.50;;
70740;Laerm;58330;51.888;11.052;2023-02-18T06:16:17;51.54;46.52;56.59;;
70740;Laerm;58330;51.888;11.052;2023-02-18T06:18:44;52.05;47.37;57.10;;
70740;Laerm;58330;51.888;11.052;2023-02-18T06:21:10;52.60;47.83;58.23;;
70740;Laerm;58330;51.888;11.052;2023-02-18T06:23:36;51.03;46.87;56.25;;
70740;Laerm;58330;51.888;11.052;2023-02-18T06:26:03;50.39;43.94;56.17;;
70740;Laerm;58330;51.888;11.052;2023-02-18T06:28:29;49.36;46.14;54.18;;
70740;Laerm;58330;51.888;11.052;2023-02-18T06:30:56;51.06;46.74;55.20;;
70740;Laerm;58330;51.888;11.052;2023-02-18T06:33:23;48.12;45.03;52.87;;
70740;Laerm;58330;51.888;11.052;2023-02-18T06:35:53;47.59;40.00;54.76;;
70740;Laerm;58330;51.888;11.052;2023-02-18T06:38:20;47.09;42.15;52.01;;
70740;Laerm;58330;51.888;11.052;2023-02-18T06:40:46;46.32;40.81;52.20;;
70740;Laerm;58330;51.888;11.052;2023-02-18T06:43:12;42.22;39.98;47.20;;
70740;Laerm;58330;51.888;11.052;2023-02-18T06:45:39;42.96;40.69;48.94;;
70740;Laerm;58330;51.888;11.052;2023-02-18T06:48:06;42.85;39.85;47.48;;
70740;Laerm;58330;51.888;11.052;2023-02-18T06:50:33;42.05;40.17;49.83;;
70740;Laerm;58330;51.888;11.052;2023-02-18T06:52:59;42.24;39.69;50.91;;
70740;Laerm;58330;51.888;11.052;2023-02-18T06:55:26;42.33;39.45;48.38;;
70740;Laerm;58330;51.888;11.052;2023-02-18T06:57:52;42.69;39.71;49.87;;
70740;Laerm;58330;51.888;11.052;2023-02-18T07:00:19;42.43;40.44;46.73;;
70740;Laerm;58330;51.888;11.052;2023-02-18T07:02:46;41.42;38.93;46.80;;
70740;Laerm;58330;51.888;11.052;2023-02-18T07:05:13;41.78;38.96;49.93;;
70740;Laerm;58330;51.888;11.052;2023-02-18T07:07:40;41.66;39.26;50.37;;
70740;Laerm;58330;51.888;11.052;2023-02-18T07:10:07;42.37;39.34;50.93;;
70740;Laerm;58330;51.888;11.052;2023-02-18T07:12:33;42.57;39.91;52.37;;
70740;Laerm;58330;51.888;11.052;2023-02-18T07:15:00;42.15;39.87;44.87;;
70740;Laerm;58330;51.888;11.052;2023-02-18T07:17:26;41.98;40.00;44.97;;
70740;Laerm;58330;51.888;11.052;2023-02-18T07:19:52;42.00;39.45;45.39;;
70740;Laerm;58330;51.888;11.052;2023-02-18T07:22:19;42.78;38.61;65.81;;
70740;Laerm;58330;51.888;11.052;2023-02-18T07:24:50;41.62;38.89;53.48;;
70740;Laerm;58330;51.888;11.052;2023-02-18T07:27:17;42.08;39.10;53.12;;
70740;Laerm;58330;51.888;11.052;2023-02-18T07:29:43;41.52;38.65;48.97;;
70740;Laerm;58330;51.888;11.052;2023-02-18T07:32:10;41.79;38.92;46.45;;
70740;Laerm;58330;51.888;11.052;2023-02-18T07:34:37;42.56;39.33;46.74;;
70740;Laerm;58330;51.888;11.052;2023-02-18T07:37:03;41.79;38.69;46.20;;
70740;Laerm;58330;51.888;11.052;2023-02-18T07:39:33;41.56;39.02;46.48;;
70740;Laerm;58330;51.888;11.052;2023-02-18T07:42:01;43.46;39.45;49.60;;
70740;Laerm;58330;51.888;11.052;2023-02-18T07:44:27;42.04;39.44;48.78;;
70740;Laerm;58330;51.888;11.052;2023-02-18T07:46:54;45.76;41.85;50.40;;
70740;Laerm;58330;51.888;11.052;2023-02-18T07:49:21;46.06;42.36;50.01;;
70740;Laerm;58330;51.888;11.052;2023-02-18T07:51:47;43.86;40.04;50.20;;
70740;Laerm;58330;51.888;11.052;2023-02-18T07:54:14;42.52;39.92;46.85;;
70740;Laerm;58330;51.888;11.052;2023-02-18T07:56:40;43.28;39.28;46.24;;
70740;Laerm;58330;51.888;11.052;2023-02-18T07:59:09;43.85;40.33;46.83;;
70740;Laerm;58330;51.888;11.052;2023-02-18T08:01:35;45.48;42.48;49.00;;
70740;Laerm;58330;51.888;11.052;2023-02-18T08:04:02;43.94;39.86;48.95;;
70740;Laerm;58330;51.888;11.052;2023-02-18T08:06:29;43.40;39.94;47.70;;
70740;Laerm;58330;51.888;11.052;2023-02-18T08:08:56;44.94;39.81;49.06;;
70740;Laerm;58330;51.888;11.052;2023-02-18T08:11:22;43.90;40.12;48.86;;
70740;Laerm;58330;51.888;11.052;2023-02-18T08:13:49;44.78;40.24;48.71;;
70740;Laerm;58330;51.888;11.052;2023-02-18T08:16:17;44.64;40.06;49.69;;
70740;Laerm;58330;51.888;11.052;2023-02-18T08:18:43;43.44;39.81;48.01;;
70740;Laerm;58330;51.888;11.052;2023-02-18T08:21:11;43.70;39.72;48.83;;
70740;Laerm;58330;51.888;11.052;2023-02-18T08:23:38;41.90;39.25;48.09;;
70740;Laerm;58330;51.888;11.052;2023-02-18T08:26:04;41.68;39.32;47.32;;
70740;Laerm;58330;51.888;11.052;2023-02-18T08:28:30;42.42;39.33;48.63;;
70740;Laerm;58330;51.888;11.052;2023-02-18T08:30:57;42.19;38.54;48.39;;
70740;Laerm;58330;51.888;11.052;2023-02-18T08:33:24;40.77;38.41;46.13;;
70740;Laerm;58330;51.888;11.052;2023-02-18T08:35:51;40.75;38.44;47.65;;
70740;Laerm;58330;51.888;11.052;2023-02-18T08:38:18;40.57;38.23;46.73;;
70740;Laerm;58330;51.888;11.052;2023-02-18T08:40:44;40.70;38.63;48.32;;
70740;Laerm;58330;51.888;11.052;2023-02-18T08:43:11;40.89;38.27;46.31;;
70740;Laerm;58330;51.888;11.052;2023-02-18T08:45:37;40.73;38.43;46.09;;
70740;Laerm;58330;51.888;11.052;2023-02-18T08:48:04;42.01;38.03;49.56;;
70740;Laerm;58330;51.888;11.052;2023-02-18T08:50:31;47.06;43.36;49.85;;
70740;Laerm;58330;51.888;11.052;2023-02-18T08:52:58;43.58;40.50;47.93;;
70740;Laerm;58330;51.888;11.052;2023-02-18T08:55:27;44.27;40.88;49.67;;
70740;Laerm;58330;51.888;11.052;2023-02-18T08:57:53;44.29;41.03;49.29;;
70740;Laerm;58330;51.888;11.052;2023-02-18T09:00:20;44.28;41.34;49.19;;
70740;Laerm;58330;51.888;11.052;2023-02-18T09:02:46;44.48;40.15;48.71;;
70740;Laerm;58330;51.888;11.052;2023-02-18T09:05:13;44.39;41.12;49.69;;
70740;Laerm;58330;51.888;11.052;2023-02-18T09:07:40;44.83;41.83;48.62;;
70740;Laerm;58330;51.888;11.052;2023-02-18T09:10:07;44.84;41.80;48.68;;
70740;Laerm;58330;51.888;11.052;2023-02-18T09:12:34;44.52;41.50;51.59;;
70740;Laerm;58330;51.888;11.052;2023-02-18T09:15:01;44.74;41.83;48.49;;
70740;Laerm;58330;51.888;11.052;2023-02-18T09:17:27;44.68;41.52;49.93;;
70740;Laerm;58330;51.888;11.052;2023-02-18T09:19:54;44.39;41.73;48.41;;
70740;Laerm;58330;51.888;11.052;2023-02-18T09:22:20;44.45;40.51;49.11;;
70740;Laerm;58330;51.888;11.052;2023-02-18T09:24:48;48.54;42.78;52.75;;
70740;Laerm;58330;51.888;11.052;2023-02-18T09:27:14;46.20;42.19;51.96;;
70740;Laerm;58330;51.888;11.052;2023-02-18T09:29:41;47.73;42.52;52.52;;
70740;Laerm;58330;51.888;11.052;2023-02-18T09:32:07;45.59;41.60;52.45;;
70740;Laerm;58330;51.888;11.052;2023-02-18T09:34:35;46.91;41.26;51.45;;
70740;Laerm;58330;51.888;11.052;2023-02-18T09:37:01;44.46;38.51;52.19;;
70740;Laerm;58330;51.888;11.052;2023-02-18T09:39:28;42.14;38.73;47.10;;
70740;Laerm;58330;51.888;11.052;2023-02-18T09:41:56;43.66;38.48;49.98;;
70740;Laerm;58330;51.888;11.052;2023-02-18T09:44:24;44.48;38.80;52.75;;
70740;Laerm;58330;51.888;11.052;2023-02-18T09:46:52;46.42;39.99;51.58;;
70740;Laerm;58330;51.888;11.052;2023-02-18T09:49:20;46.37;39.46;53.12;;
70740;Laerm;58330;51.888;11.052;2023-02-18T09:51:47;46.58;38.50;52.91;;
70740;Laerm;58330;51.888;11.052;2023-02-18T09:54:14;47.60;38.92;56.57;;
70740;Laerm;58330;51.888;11.052;2023-02-18T09:56:41;45.97;38.97;53.72;;
70740;Laerm;58330;51.888;11.052;2023-02-18T09:59:12;44.94;39.03;50.31;;
70740;Laerm;58330;51.888;11.052;2023-02-18T10:01:40;44.71;38.99;51.16;;
70740;Laerm;58330;51.888;11.052;2023-02-18T10:04:09;44.04;38.87;52.25;;
70740;Laerm;58330;51.888;11.052;2023-02-18T10:06:38;43.40;38.56;52.18;;
70740;Laerm;58330;51.888;11.052;2023-02-18T10:09:05;43.46;38.86;57.80;;
70740;Laerm;58330;51.888;11.052;2023-02-18T10:11:36;43.26;38.64;49.45;;
70740;Laerm;58330;51.888;11.052;2023-02-18T10:14:05;42.53;38.36;48.31;;
70740;Laerm;58330;51.888;11.052;2023-02-18T10:16:36;44.23;37.98;53.57;;
70740;Laerm;58330;51.888;11.052;2023-02-18T10:19:03;44.78;38.35;51.89;;
70740;Laerm;58330;51.888;11.052;2023-02-18T10:21:32;43.35;38.07;52.02;;
70740;Laerm;58330;51.888;11.052;2023-02-18T10:24:01;43.97;38.16;54.35;;
70740;Laerm;58330;51.888;11.052;2023-02-18T10:26:29;42.63;37.87;51.17;;
70740;Laerm;58330;51.888;11.052;2023-02-18T10:28:56;44.41;37.50;50.72;;
70740;Laerm;58330;51.888;11.052;2023-02-18T10:31:24;43.02;38.05;49.54;;
70740;Laerm;58330;51.888;11.052;2023-02-18T10:33:56;43.67;37.18;54.15;;
70740;Laerm;58330;51.888;11.052;2023-02-18T10:36:24;42.61;37.47;53.09;;
70740;Laerm;58330;51.888;11.052;2023-02-18T10:41:37;44.34;37.31;53.65;;
70740;Laerm;58330;51.888;11.052;2023-02-18T10:44:09;42.83;37.80;51.90;;
70740;Laerm;58330;51.888;11.052;2023-02-18T10:46:41;42.68;37.55;52.07;;
70740;Laerm;58330;51.888;11.052;2023-02-18T10:49:22;43.97;37.61;52.97;;
70740;Laerm;58330;51.888;11.052;2023-02-18T10:51:53;45.05;37.45;53.87;;
70740;Laerm;58330;51.888;11.052;2023-02-18T10:54:22;51.42;39.45;56.49;;
70740;Laerm;58330;51.888;11.052;2023-02-18T10:56:49;47.78;38.89;55.10;;
70740;Laerm;58330;51.888;11.052;2023-02-18T10:59:18;48.89;39.93;56.05;;
70740;Laerm;58330;51.888;11.052;2023-02-18T11:01:45;49.75;39.57;55.26;;
70740;Laerm;58330;51.888;11.052;2023-02-18T11:04:20;49.08;39.56;53.93;;
70740;Laerm;58330;51.888;11.052;2023-02-18T11:06:47;48.89;38.49;56.63;;
70740;Laerm;58330;51.888;11.052;2023-02-18T11:12:02;49.85;39.81;55.97;;
70740;Laerm;58330;51.888;11.052;2023-02-18T11:14:35;48.22;39.86;53.86;;
70740;Laerm;58330;51.888;11.052;2023-02-18T11:17:08;45.89;38.17;53.13;;
70740;Laerm;58330;51.888;11.052;2023-02-18T11:19:36;45.39;38.37;54.17;;
70740;Laerm;58330;51.888;11.052;2023-02-18T11:22:07;48.36;39.19;54.11;;
70740;Laerm;58330;51.888;11.052;2023-02-18T11:24:36;46.18;38.70;52.87;;
70740;Laerm;58330;51.888;11.052;2023-02-18T11:27:07;45.32;37.94;52.61;;
70740;Laerm;58330;51.888;11.052;2023-02-18T11:29:33;44.88;39.02;52.21;;
70740;Laerm;58330;51.888;11.052;2023-02-18T11:32:00;45.14;38.90;53.16;;
70740;Laerm;58330;51.888;11.052;2023-02-18T11:34:28;44.71;37.49;52.54;;
70740;Laerm;58330;51.888;11.052;2023-02-18T11:37:06;44.11;38.04;52.44;;
70740;Laerm;58330;51.888;11.052;2023-02-18T11:39:33;43.66;38.63;49.92;;
70740;Laerm;58330;51.888;11.052;2023-02-18T11:42:00;45.49;39.14;54.16;;
70740;Laerm;58330;51.888;11.052;2023-02-18T11:44:28;50.19;40.31;55.01;;
70740;Laerm;58330;51.888;11.052;2023-02-18T11:46:57;48.75;39.04;55.42;;
70740;Laerm;58330;51.888;11.052;2023-02-18T11:49:24;46.47;38.79;54.97;;
70740;Laerm;58330;51.888;11.052;2023-02-18T11:51:50;48.21;39.22;55.01;;
70740;Laerm;58330;51.888;11.052;2023-02-18T11:54:23;46.67;37.73;54.92;;
70740;Laerm;58330;51.888;11.052;2023-02-18T11:56:53;43.66;37.58;51.56;;
70740;Laerm;58330;51.888;11.052;2023-02-18T11:59:20;43.76;37.85;49.93;;
70740;Laerm;58330;51.888;11.052;2023-02-18T12:01:49;43.59;37.77;55.42;;
70740;Laerm;58330;51.888;11.052;2023-02-18T12:04:18;42.61;38.43;48.77;;
70740;Laerm;58330;51.888;11.052;2023-02-18T12:06:49;43.01;38.38;50.31;;
70740;Laerm;58330;51.888;11.052;2023-02-18T12:09:18;44.00;37.91;51.81;;
70740;Laerm;58330;51.888;11.052;2023-02-18T12:11:48;43.93;37.98;51.54;;
70740;Laerm;58330;51.888;11.052;2023-02-18T12:14:16;43.97;38.21;52.11;;
70740;Laerm;58330;51.888;11.052;2023-02-18T12:16:44;44.01;38.32;50.42;;
70740;Laerm;58330;51.888;11.052;2023-02-18T12:19:20;46.06;38.80;53.34;;
70740;Laerm;58330;51.888;11.052;2023-02-18T12:21:53;45.83;39.31;53.43;;
70740;Laerm;58330;51.888;11.052;2023-02-18T12:24:25;45.48;38.65;53.70;;
70740;Laerm;58330;51.888;11.052;2023-02-18T12:26:59;44.27;37.47;54.25;;
70740;Laerm;58330;51.888;11.052;2023-02-18T12:32:17;45.02;37.93;54.01;;
70740;Laerm;58330;51.888;11.052;2023-02-18T12:34:48;45.11;39.33;55.64;;
70740;Laerm;58330;51.888;11.052;2023-02-18T12:40:06;45.39;38.70;53.33;;
70740;Laerm;58330;51.888;11.052;2023-02-18T12:42:44;43.22;38.47;50.58;;
70740;Laerm;58330;51.888;11.052;2023-02-18T12:45:22;43.73;38.90;49.00;;
70740;Laerm;58330;51.888;11.052;2023-02-18T12:53:32;44.61;39.25;54.00;;
70740;Laerm;58330;51.888;11.052;2023-02-18T12:56:06;43.45;39.24;52.14;;
70740;Laerm;58330;51.888;11.052;2023-02-18T12:58:39;42.98;38.69;48.48;;
70740;Laerm;58330;51.888;11.052;2023-02-18T13:04:08;43.61;38.73;53.96;;
70740;Laerm;58330;51.888;11.052;2023-02-18T13:09:22;44.55;39.29;51.45;;
70740;Laerm;58330;51.888;11.052;2023-02-18T13:11:54;45.64;40.09;51.48;;
70740;Laerm;58330;51.888;11.052;2023-02-18T13:14:25;45.97;38.26;52.68;;
70740;Laerm;58330;51.888;11.052;2023-02-18T13:16:53;42.20;37.74;51.30;;
70740;Laerm;58330;51.888;11.052;2023-02-18T13:19:21;45.33;37.99;52.06;;
70740;Laerm;58330;51.888;11.052;2023-02-18T13:21:49;46.54;38.88;52.31;;
70740;Laerm;58330;51.888;11.052;2023-02-18T13:24:18;46.58;38.13;52.70;;
70740;Laerm;58330;51.888;11.052;2023-02-18T13:26:46;46.96;38.43;52.27;;
70740;Laerm;58330;51.888;11.052;2023-02-18T13:29:18;43.23;38.11;54.16;;
70740;Laerm;58330;51.888;11.052;2023-02-18T13:31:51;43.28;37.71;48.78;;
70740;Laerm;58330;51.888;11.052;2023-02-18T13:34:23;42.86;37.58;47.90;;
70740;Laerm;58330;51.888;11.052;2023-02-18T13:36:55;43.74;37.72;49.33;;
70740;Laerm;58330;51.888;11.052;2023-02-18T13:39:26;44.33;37.95;50.73;;
70740;Laerm;58330;51.888;11.052;2023-02-18T13:42:09;43.94;37.59;48.84;;
70740;Laerm;58330;51.888;11.052;2023-02-18T13:44:39;43.81;37.56;49.23;;
70740;Laerm;58330;51.888;11.052;2023-02-18T13:47:36;46.44;37.24;53.61;;
70740;Laerm;58330;51.888;11.052;2023-02-18T13:50:13;45.02;37.72;52.57;;
70740;Laerm;58330;51.888;11.052;2023-02-18T13:52:39;44.13;37.27;51.36;;
70740;Laerm;58330;51.888;11.052;2023-02-18T13:55:13;46.17;38.47;50.75;;
70740;Laerm;58330;51.888;11.052;2023-02-18T13:57:44;46.64;37.30;53.86;;
70740;Laerm;58330;51.888;11.052;2023-02-18T14:00:14;46.40;37.47;54.80;;
70740;Laerm;58330;51.888;11.052;2023-02-18T14:02:56;43.97;37.46;51.85;;
70740;Laerm;58330;51.888;11.052;2023-02-18T14:05:23;43.30;36.89;49.61;;
70740;Laerm;58330;51.888;11.052;2023-02-18T14:07:50;42.33;38.13;49.33;;
70740;Laerm;58330;51.888;11.052;2023-02-18T14:10:24;42.21;37.48;48.80;;
70740;Laerm;58330;51.888;11.052;2023-02-18T14:13:00;43.27;37.78;50.12;;
70740;Laerm;58330;51.888;11.052;2023-02-18T14:15:45;42.05;36.89;47.87;;